createdAt,value
2023-01-20T00:02:22.344Z,12.48
2023-01-20T00:05:09.158Z,13.52
2023-01-20T00:07:54.837Z,15.00
2023-01-20T00:10:41.090Z,16.23
2023-01-20T00:13:27.094Z,16.08
2023-01-20T00:16:14.561Z,16.50
2023-01-20T00:19:00.191Z,19.08
2023-01-20T00:21:45.727Z,17.60
2023-01-20T00:24:31.447Z,17.83
2023-01-20T00:27:19.612Z,17.98
2023-01-20T00:30:07.698Z,18.48
2023-01-20T00:32:54.814Z,17.77
2023-01-20T00:35:40.661Z,17.50
2023-01-20T00:38:26.539Z,14.88
2023-01-20T00:41:12.871Z,16.50
2023-01-20T00:43:58.533Z,16.48
2023-01-20T00:46:44.359Z,16.60
2023-01-20T00:49:31.738Z,17.10
2023-01-20T00:52:18.750Z,17.65
2023-01-20T00:55:04.991Z,17.88
2023-01-20T00:57:50.608Z,18.70
2023-01-20T01:00:36.091Z,17.88
2023-01-20T01:03:22.558Z,17.80
2023-01-20T01:06:13.170Z,17.88
2023-01-20T01:08:58.574Z,17.90
2023-01-20T01:11:44.478Z,16.77
2023-01-20T01:14:31.504Z,15.77
2023-01-20T01:17:17.065Z,16.75
2023-01-20T01:20:04.115Z,15.38
2023-01-20T01:22:51.087Z,14.68
2023-01-20T01:25:37.643Z,14.48
2023-01-20T01:28:23.513Z,15.02
2023-01-20T01:31:09.588Z,15.02
2023-01-20T01:33:55.292Z,16.38
2023-01-20T01:36:41.365Z,17.05
2023-01-20T01:39:28.437Z,17.50
2023-01-20T01:42:15.016Z,17.02
2023-01-20T01:45:23.256Z,18.02
2023-01-20T01:48:10.633Z,18.45
2023-01-20T01:51:01.421Z,18.75
2023-01-20T01:53:53.752Z,17.25
2023-01-20T01:56:43.684Z,17.80
2023-01-20T01:59:29.513Z,19.00
2023-01-20T02:02:15.487Z,18.77
2023-01-20T02:05:03.585Z,19.42
2023-01-20T02:07:49.708Z,19.23
2023-01-20T02:10:35.636Z,20.48
2023-01-20T02:13:22.969Z,21.58
2023-01-20T02:16:18.340Z,22.48
2023-01-20T02:19:30.858Z,23.65
2023-01-20T02:22:30.977Z,22.42
2023-01-20T02:26:06.150Z,23.00
2023-01-20T02:29:29.946Z,24.02
2023-01-20T02:32:25.728Z,24.63
2023-01-20T02:35:13.841Z,25.27
2023-01-20T02:38:11.580Z,24.42
2023-01-20T02:41:06.355Z,23.75
2023-01-20T02:43:59.178Z,23.92
2023-01-20T02:46:52.144Z,25.17
2023-01-20T02:49:46.191Z,25.58
2023-01-20T02:52:34.811Z,26.15
2023-01-20T02:55:28.178Z,26.63
2023-01-20T02:58:18.955Z,25.23
2023-01-20T03:01:10.413Z,25.38
2023-01-20T03:03:59.283Z,26.23
2023-01-20T03:06:49.438Z,25.00
2023-01-20T03:09:37.683Z,25.98
2023-01-20T03:12:28.084Z,27.70
2023-01-20T03:15:14.852Z,27.25
2023-01-20T03:18:00.942Z,27.85
2023-01-20T03:20:47.352Z,29.88
2023-01-20T03:23:37.586Z,27.83
2023-01-20T03:26:24.074Z,29.13
2023-01-20T03:29:16.161Z,27.73
2023-01-20T03:32:10.902Z,27.95
2023-01-20T03:34:58.299Z,27.88
2023-01-20T03:37:45.232Z,28.70
2023-01-20T03:40:37.711Z,28.60
2023-01-20T03:43:31.282Z,27.13
2023-01-20T03:46:27.654Z,28.15
2023-01-20T03:49:19.631Z,26.77
2023-01-20T03:52:16.612Z,27.10
2023-01-20T03:55:05.979Z,26.58
2023-01-20T03:57:56.453Z,26.33
2023-01-20T04:00:46.395Z,27.53
2023-01-20T04:03:36.907Z,27.95
2023-01-20T04:06:26.039Z,29.67
2023-01-20T04:09:16.959Z,25.15
2023-01-20T04:12:03.121Z,26.60
2023-01-20T04:14:50.357Z,27.15
2023-01-20T04:17:36.178Z,26.63
2023-01-20T04:20:21.895Z,25.42
2023-01-20T04:23:14.343Z,25.42
2023-01-20T04:26:00.231Z,24.17
2023-01-20T04:28:45.994Z,23.20
2023-01-20T04:31:33.336Z,22.60
2023-01-20T04:34:19.438Z,23.58
2023-01-20T04:37:05.037Z,23.33
2023-01-20T04:39:50.874Z,23.98
2023-01-20T04:42:37.066Z,21.85
2023-01-20T04:45:22.777Z,21.25
2023-01-20T04:48:10.445Z,23.90
2023-01-20T04:50:56.083Z,22.73
2023-01-20T04:53:42.018Z,22.48
2023-01-20T04:56:27.857Z,23.50
2023-01-20T04:59:13.675Z,21.63
2023-01-20T05:01:59.412Z,22.45
2023-01-20T05:04:46.460Z,22.95
2023-01-20T05:07:32.089Z,23.88
2023-01-20T05:10:17.871Z,23.13
2023-01-20T05:13:03.244Z,23.40
2023-01-20T05:15:49.162Z,21.77
2023-01-20T05:18:35.310Z,23.30
2023-01-20T05:21:22.579Z,23.08
2023-01-20T05:24:08.844Z,24.40
2023-01-20T05:26:54.842Z,24.15
2023-01-20T05:29:40.499Z,24.63
2023-01-20T05:32:26.272Z,23.65
2023-01-20T05:35:11.888Z,25.80
2023-01-20T05:37:59.038Z,25.83
2023-01-20T05:40:45.091Z,24.45
2023-01-20T05:43:30.774Z,25.13
2023-01-20T05:46:16.236Z,26.30
2023-01-20T05:49:03.074Z,25.35
2023-01-20T05:51:48.730Z,26.27
2023-01-20T05:54:35.683Z,24.90
2023-01-20T05:57:24.139Z,26.08
2023-01-20T06:00:11.231Z,26.25
2023-01-20T06:02:57.161Z,26.95
2023-01-20T06:05:43.052Z,26.38
2023-01-20T06:08:28.960Z,26.00
2023-01-20T06:11:17.882Z,26.55
2023-01-20T06:14:03.476Z,26.58
2023-01-20T06:16:50.208Z,26.23
2023-01-20T06:19:35.949Z,25.52
2023-01-20T06:22:21.909Z,26.45
2023-01-20T06:25:08.127Z,23.67
2023-01-20T06:27:55.430Z,25.02
2023-01-20T06:30:43.146Z,25.58
2023-01-20T06:33:29.092Z,25.98
2023-01-20T06:36:16.969Z,26.08
2023-01-20T06:39:02.596Z,25.10
2023-01-20T06:41:48.512Z,26.13
2023-01-20T06:44:38.781Z,24.67
2023-01-20T06:47:24.179Z,24.77
2023-01-20T06:50:10.490Z,25.02
2023-01-20T06:52:56.818Z,24.88
2023-01-20T06:55:42.944Z,24.73
2023-01-20T06:58:30.215Z,24.05
2023-01-20T07:01:22.141Z,24.23
2023-01-20T07:04:08.400Z,24.45
2023-01-20T07:06:54.171Z,23.67
2023-01-20T07:09:40.334Z,22.83
2023-01-20T07:12:26.023Z,22.92
2023-01-20T07:15:12.313Z,22.98
2023-01-20T07:17:59.874Z,23.75
2023-01-20T07:20:45.899Z,22.15
2023-01-20T07:23:33.648Z,22.50
2023-01-20T07:26:21.561Z,23.25
2023-01-20T07:29:07.184Z,22.67
2023-01-20T07:31:52.928Z,23.58
2023-01-20T07:34:40.174Z,23.55
2023-01-20T07:37:26.182Z,22.38
2023-01-20T07:40:12.737Z,22.80
2023-01-20T07:42:58.606Z,24.20
2023-01-20T07:45:43.944Z,22.38
2023-01-20T07:48:31.205Z,22.60
2023-01-20T07:51:18.611Z,21.95
2023-01-20T07:54:04.507Z,21.95
2023-01-20T07:56:49.951Z,21.10
2023-01-20T07:59:35.550Z,23.83
2023-01-20T08:02:21.498Z,23.45
2023-01-20T08:05:07.980Z,24.45
2023-01-20T08:07:55.078Z,23.05
2023-01-20T08:10:40.849Z,22.95
2023-01-20T08:13:26.390Z,24.27
2023-01-20T08:16:13.875Z,23.55
2023-01-20T08:18:59.831Z,25.42
2023-01-20T08:21:45.695Z,24.58
2023-01-20T08:24:33.056Z,24.80
2023-01-20T08:27:19.739Z,25.17
2023-01-20T08:30:06.916Z,23.13
2023-01-20T08:32:52.655Z,23.48
2023-01-20T08:35:38.381Z,23.77
2023-01-20T08:38:23.979Z,22.00
2023-01-20T08:41:13.891Z,22.75
2023-01-20T08:44:01.141Z,23.50
2023-01-20T08:46:47.257Z,22.33
2023-01-20T08:49:32.906Z,21.88
2023-01-20T08:52:18.787Z,21.70
2023-01-20T08:55:06.354Z,21.95
2023-01-20T08:57:53.295Z,21.15
2023-01-20T09:00:39.282Z,22.08
2023-01-20T09:03:25.624Z,22.80
2023-01-20T09:06:11.916Z,22.52
2023-01-20T09:08:57.641Z,20.92
2023-01-20T09:11:50.468Z,22.13
2023-01-20T09:14:37.571Z,35.17
2023-01-20T09:17:23.323Z,32.08
2023-01-20T09:20:10.855Z,29.88
2023-01-20T09:22:56.812Z,24.83
2023-01-20T09:25:42.463Z,36.45
2023-01-20T09:28:30.267Z,31.42
2023-01-20T09:31:17.405Z,26.48
2023-01-20T09:34:03.078Z,28.95
2023-01-20T09:36:51.185Z,25.45
2023-01-20T09:39:55.275Z,23.90
2023-01-20T09:43:14.670Z,24.17
2023-01-20T09:46:09.101Z,28.95
2023-01-20T09:49:24.696Z,47.33
2023-01-20T09:52:35.777Z,26.15
2023-01-20T09:55:26.475Z,21.27
2023-01-20T09:58:22.895Z,20.10
2023-01-20T10:01:15.651Z,30.00
2023-01-20T10:04:12.882Z,35.80
2023-01-20T10:07:07.540Z,30.88
2023-01-20T10:09:57.393Z,25.77
2023-01-20T10:12:47.906Z,38.17
2023-01-20T10:15:36.460Z,27.88
2023-01-20T10:18:27.045Z,24.52
2023-01-20T10:21:19.713Z,25.25
2023-01-20T10:24:13.901Z,28.45
2023-01-20T10:27:02.592Z,21.23
2023-01-20T10:29:53.622Z,21.83
2023-01-20T10:32:45.536Z,21.95
2023-01-20T10:35:36.936Z,24.27
2023-01-20T10:38:30.181Z,20.65
2023-01-20T10:41:22.339Z,19.63
2023-01-20T10:44:12.121Z,19.27
2023-01-20T10:47:17.798Z,19.30
2023-01-20T10:50:20.371Z,17.60
2023-01-20T10:53:34.067Z,18.23
2023-01-20T10:56:36.388Z,19.63
2023-01-20T10:59:28.985Z,18.02
2023-01-20T11:02:18.074Z,17.42
2023-01-20T11:05:18.057Z,20.08
2023-01-20T11:08:10.291Z,19.73
2023-01-20T11:11:02.952Z,25.02
2023-01-20T11:13:51.625Z,18.40
2023-01-20T11:16:37.558Z,18.25
2023-01-20T11:19:23.211Z,17.92
2023-01-20T11:22:13.165Z,18.83
2023-01-20T11:25:00.218Z,18.13
2023-01-20T11:27:47.988Z,18.45
2023-01-20T11:30:35.643Z,17.02
2023-01-20T11:33:23.861Z,16.98
2023-01-20T11:36:18.921Z,16.77
2023-01-20T11:39:23.231Z,21.27
2023-01-20T11:42:16.131Z,19.80
2023-01-20T11:45:20.801Z,18.30
2023-01-20T11:48:18.067Z,18.02
2023-01-20T11:51:04.290Z,16.52
2023-01-20T11:53:50.401Z,17.65
2023-01-20T11:56:41.186Z,18.58
2023-01-20T11:59:29.293Z,18.40
2023-01-20T12:02:36.333Z,19.73
2023-01-20T12:05:52.480Z,18.17
2023-01-20T12:08:48.277Z,18.45
2023-01-20T12:11:37.170Z,17.73
2023-01-20T12:14:28.747Z,18.33
2023-01-20T12:17:21.689Z,17.92
2023-01-20T12:20:17.937Z,18.50
2023-01-20T12:23:21.099Z,24.70
2023-01-20T12:26:09.923Z,32.40
2023-01-20T12:29:02.122Z,16.30
2023-01-20T12:31:49.395Z,30.67
2023-01-20T12:34:35.456Z,18.63
2023-01-20T12:37:26.623Z,16.52
2023-01-20T12:40:22.539Z,15.95
2023-01-20T12:43:22.114Z,17.02
2023-01-20T12:46:32.306Z,17.25
2023-01-20T12:49:49.172Z,17.75
2023-01-20T12:52:47.860Z,14.10
2023-01-20T12:55:44.411Z,16.25
2023-01-20T12:58:42.752Z,13.30
2023-01-20T13:01:42.805Z,12.95
2023-01-20T13:05:05.420Z,17.15
2023-01-20T13:08:07.481Z,20.55
2023-01-20T13:11:03.422Z,14.93
2023-01-20T13:14:04.095Z,14.07
2023-01-20T13:16:56.321Z,13.90
2023-01-20T13:19:45.694Z,14.45
2023-01-20T13:22:31.801Z,14.50
2023-01-20T13:25:19.988Z,14.13
2023-01-20T13:28:07.882Z,15.05
2023-01-20T13:30:57.336Z,14.18
2023-01-20T13:33:43.084Z,13.90
2023-01-20T13:36:28.893Z,14.00
2023-01-20T13:39:40.672Z,15.15
2023-01-20T13:42:48.797Z,13.55
2023-01-20T13:45:34.801Z,13.63
2023-01-20T13:48:23.668Z,11.35
2023-01-20T13:51:44.909Z,11.63
2023-01-20T13:54:47.821Z,13.38
2023-01-20T13:57:36.957Z,13.85
2023-01-20T14:00:23.194Z,14.75
2023-01-20T14:03:17.635Z,12.50
2023-01-20T14:06:08.355Z,13.25
2023-01-20T14:08:54.159Z,13.85
2023-01-20T14:11:49.645Z,12.93
2023-01-20T14:14:42.417Z,12.00
2023-01-20T14:17:28.191Z,12.15
2023-01-20T14:20:23.593Z,12.85
2023-01-20T14:23:39.759Z,12.05
2023-01-20T14:26:28.396Z,11.77
2023-01-20T14:29:20.077Z,11.13
2023-01-20T14:32:19.958Z,11.40
2023-01-20T14:35:14.574Z,11.85
2023-01-20T14:38:00.775Z,9.68
2023-01-20T14:40:49.704Z,9.25
2023-01-20T14:43:35.401Z,10.10
2023-01-20T14:46:21.469Z,10.93
2023-01-20T14:49:15.885Z,12.13
2023-01-20T14:52:02.246Z,11.93
2023-01-20T14:54:53.012Z,12.40
2023-01-20T14:57:43.487Z,12.93
2023-01-20T15:00:31.089Z,12.10
2023-01-20T15:03:21.410Z,12.77
2023-01-20T15:06:20.739Z,12.70
2023-01-20T15:09:22.257Z,17.70
2023-01-20T15:12:34.050Z,13.43
2023-01-20T15:15:30.992Z,11.63
2023-01-20T15:18:23.193Z,10.63
2023-01-20T15:21:28.005Z,10.77
2023-01-20T15:24:15.279Z,11.18
2023-01-20T15:27:02.666Z,10.57
2023-01-20T15:30:20.917Z,9.20
2023-01-20T15:33:09.089Z,10.05
2023-01-20T15:35:56.920Z,10.80
2023-01-20T15:38:44.022Z,10.02
2023-01-20T15:41:29.697Z,9.05
2023-01-20T15:44:15.373Z,8.77
2023-01-20T15:47:00.787Z,9.60
2023-01-20T15:49:46.908Z,9.07
2023-01-20T15:52:32.788Z,9.50
2023-01-20T15:55:19.838Z,9.57
2023-01-20T15:58:26.317Z,9.88
2023-01-20T16:01:15.075Z,10.30
2023-01-20T16:04:00.973Z,8.90
2023-01-20T16:06:46.852Z,9.18
2023-01-20T16:09:37.074Z,9.85
2023-01-20T16:12:23.954Z,9.80
2023-01-20T16:15:14.790Z,9.88
2023-01-20T16:18:00.547Z,9.82
2023-01-20T16:20:47.743Z,8.82
2023-01-20T16:23:33.794Z,8.88
2023-01-20T16:26:22.775Z,9.50
2023-01-20T16:29:10.179Z,9.85
2023-01-20T16:31:56.368Z,9.85
2023-01-20T16:34:42.735Z,8.57
2023-01-20T16:37:28.487Z,9.82
2023-01-20T16:40:16.749Z,9.18
2023-01-20T16:43:02.199Z,15.25
2023-01-20T16:45:56.023Z,12.30
2023-01-20T16:48:42.116Z,11.07
2023-01-20T16:51:29.045Z,11.18
2023-01-20T16:54:15.145Z,11.35
2023-01-20T16:57:01.137Z,14.38
2023-01-20T16:59:46.782Z,13.15
2023-01-20T17:02:39.044Z,12.50
2023-01-20T17:05:27.332Z,12.93
2023-01-20T17:08:13.084Z,12.65
2023-01-20T17:10:59.349Z,20.13
2023-01-20T17:13:45.251Z,13.95
2023-01-20T17:16:31.598Z,16.65
2023-01-20T17:19:19.004Z,18.20
2023-01-20T17:22:04.902Z,25.23
2023-01-20T17:24:50.735Z,20.48
2023-01-20T17:27:37.333Z,28.77
2023-01-20T17:30:26.120Z,23.10
2023-01-20T17:33:12.099Z,36.15
2023-01-20T17:36:00.475Z,20.17
2023-01-20T17:38:46.597Z,33.22
2023-01-20T17:41:32.264Z,26.38
2023-01-20T17:44:17.703Z,26.40
2023-01-20T17:47:04.265Z,22.38
2023-01-20T17:49:50.323Z,29.05
2023-01-20T17:52:37.773Z,21.92
2023-01-20T17:55:23.672Z,14.68
2023-01-20T17:58:10.322Z,20.17
2023-01-20T18:00:56.077Z,23.55
2023-01-20T18:03:43.177Z,21.60
2023-01-20T18:06:30.506Z,20.80
2023-01-20T18:09:17.873Z,34.88
2023-01-20T18:12:03.942Z,30.58
2023-01-20T18:14:49.853Z,74.03
2023-01-20T18:17:35.607Z,25.60
2023-01-20T18:20:21.926Z,22.65
2023-01-20T18:23:07.886Z,25.00
2023-01-20T18:25:56.335Z,23.50
2023-01-20T18:28:42.533Z,24.52
2023-01-20T18:31:31.809Z,24.65
2023-01-20T18:34:17.956Z,21.60
2023-01-20T18:37:03.805Z,20.42
2023-01-20T18:39:50.385Z,25.75
2023-01-20T18:42:37.269Z,24.70
2023-01-20T18:45:23.041Z,32.70
2023-01-20T18:48:09.920Z,24.33
2023-01-20T18:50:59.941Z,26.58
2023-01-20T18:53:47.268Z,23.10
2023-01-20T18:56:34.143Z,23.92
2023-01-20T18:59:21.618Z,23.30
2023-01-20T19:02:09.241Z,23.10
2023-01-20T19:04:54.941Z,23.40
2023-01-20T19:07:40.823Z,23.83
2023-01-20T19:10:27.263Z,24.30
2023-01-20T19:13:13.894Z,22.60
2023-01-20T19:16:01.137Z,22.58
2023-01-20T19:18:51.148Z,21.65
2023-01-20T19:21:37.463Z,26.70
2023-01-20T19:24:27.206Z,24.70
2023-01-20T19:27:13.033Z,25.65
2023-01-20T19:29:58.500Z,37.88
2023-01-20T19:32:45.781Z,25.00
2023-01-20T19:35:33.461Z,27.42
2023-01-20T19:38:19.128Z,24.83
2023-01-20T19:41:05.819Z,59.22
2023-01-20T19:43:55.455Z,40.20
2023-01-20T19:46:41.440Z,29.10
2023-01-20T19:49:28.670Z,23.73
2023-01-20T19:52:14.697Z,25.17
2023-01-20T19:55:00.973Z,35.85
2023-01-20T19:57:46.442Z,38.00
2023-01-20T20:00:32.889Z,40.85
2023-01-20T20:03:18.907Z,27.48
2023-01-20T20:06:08.230Z,46.22
2023-01-20T20:08:56.841Z,37.15
2023-01-20T20:11:43.107Z,34.15
2023-01-20T20:14:31.201Z,29.65
2023-01-20T20:17:16.785Z,25.85
2023-01-20T20:20:03.078Z,29.40
2023-01-20T20:22:50.293Z,26.40
2023-01-20T20:25:37.710Z,29.98
2023-01-20T20:28:23.847Z,60.88
2023-01-20T20:31:09.928Z,29.83
2023-01-20T20:33:59.739Z,30.88
2023-01-20T20:36:46.325Z,25.80
2023-01-20T20:39:33.613Z,26.50
2023-01-20T20:42:19.008Z,32.22
2023-01-20T20:45:05.785Z,24.90
2023-01-20T20:47:52.014Z,29.10
2023-01-20T20:50:37.520Z,26.83
2023-01-20T20:53:23.242Z,39.72
2023-01-20T20:56:12.600Z,41.25
2023-01-20T20:59:02.360Z,29.77
2023-01-20T21:01:52.634Z,26.52
2023-01-20T21:04:38.533Z,27.58
2023-01-20T21:07:24.746Z,27.15
2023-01-20T21:10:13.918Z,28.25
2023-01-20T21:13:01.597Z,37.35
2023-01-20T21:15:55.368Z,28.52
2023-01-20T21:18:41.784Z,44.10
2023-01-20T21:21:30.640Z,34.40
2023-01-20T21:24:16.138Z,44.10
2023-01-20T21:27:01.918Z,45.85
2023-01-20T21:29:49.250Z,32.05
2023-01-20T21:32:40.695Z,25.33
2023-01-20T21:38:12.044Z,22.90
2023-01-20T21:41:00.104Z,28.70
2023-01-20T21:44:06.386Z,41.83
2023-01-20T21:46:53.398Z,28.95
2023-01-20T21:49:57.871Z,46.92
2023-01-20T21:52:45.309Z,39.75
2023-01-20T21:55:31.165Z,33.00
2023-01-20T21:58:16.853Z,37.72
2023-01-20T22:01:02.581Z,32.95
2023-01-20T22:03:49.636Z,27.02
2023-01-20T22:06:35.677Z,26.27
2023-01-20T22:09:21.387Z,24.70
2023-01-20T22:12:07.673Z,24.38
2023-01-20T22:14:53.287Z,22.10
2023-01-20T22:17:39.067Z,22.27
2023-01-20T22:20:27.985Z,23.38
2023-01-20T22:23:14.229Z,23.30
2023-01-20T22:26:00.247Z,22.10
2023-01-20T22:28:46.033Z,22.45
2023-01-20T22:31:32.037Z,22.10
2023-01-20T22:34:18.318Z,22.23
2023-01-20T22:37:05.391Z,21.88
2023-01-20T22:39:51.465Z,23.38
2023-01-20T22:42:37.124Z,21.40
2023-01-20T22:45:22.966Z,21.95
2023-01-20T22:48:08.744Z,22.88
2023-01-20T22:50:54.661Z,22.85
2023-01-20T22:53:43.415Z,22.02
2023-01-20T22:56:31.378Z,21.67
2023-01-20T22:59:17.303Z,21.23
2023-01-20T23:02:03.002Z,20.20
2023-01-20T23:04:48.818Z,21.10
2023-01-20T23:07:34.915Z,20.20
2023-01-20T23:10:40.739Z,22.58
2023-01-20T23:13:27.073Z,22.85
2023-01-20T23:16:15.141Z,22.75
2023-01-20T23:19:00.831Z,23.25
2023-01-20T23:21:46.715Z,21.75
2023-01-20T23:24:32.545Z,24.40
2023-01-20T23:27:19.468Z,14.57
2023-01-20T23:30:06.492Z,22.73
2023-01-20T23:32:52.362Z,22.75
2023-01-20T23:35:39.051Z,20.02
2023-01-20T23:38:24.641Z,21.90
2023-01-20T23:41:10.782Z,23.75
2023-01-20T23:43:58.078Z,22.85
2023-01-20T23:46:43.766Z,22.38
2023-01-20T23:49:29.372Z,23.55
2023-01-20T23:52:15.141Z,22.67
2023-01-20T23:55:01.291Z,22.60
2023-01-20T23:57:47.069Z,22.52
